Bear, Delaware
Current Conditions -  °F | °C
As of 3:51 AM on Sunday 23 Nov 2014 (Local Time) from KILG Reporting Station
Clear Clear  
Wind Chill: 34°   Ceiling: Unl
Heat Index: 38°   Visibility: 10mi
Dew Point: 25°   Wind: 5mph
Humidity: 60%   Direction: 160°SSE
Pressure: 30.2"   Gusts: NA
Location:  39.61°N, 75.69°W
Report Text: KILG 230851Z AUTO 16004KT 10SM CLR 03/M04 A3020 RMK AO2 SLP227 T00331039 58013
Loading
Personal Weather Stations






























Interactive Weather Map New forecast layout! Learn more

10-Day Weather Forecast

Advertisements
Track Severe Weather on mobile